Bartlett, Nebraska
Current Conditions -  °F | °C
As of 3:35 PM on Thursday 23 Oct 2014 (Local Time) from KBVN Reporting Station
Clear Clear  
Wind Chill: 69°   Ceiling: Unl
Heat Index: 69°   Visibility: 10mi
Dew Point: 48°   Wind: 12mph
Humidity: 47%   Direction: 210°SSW
Pressure: 30"   Gusts: NA
Location:  41.89°N, 98.55°W
Report Text: KBVN 232035Z AUTO 21010KT 10SM CLR 20/09 A3000 RMK AO2 T02040088
Loading
Personal Weather Stations






























Interactive Weather Map
Tropical Storm Tracking
New forecast layout! Learn more

10-Day Weather Forecast

Advertisements
Track Severe Weather on mobile